Date,TemperatureHighF,TemperatureAvgF,TemperatureLowF,DewpointHighF,DewpointAvgF,DewpointLowF,HumidityHigh,HumidityAvg,HumidityLow,PressureMaxIn,PressureMinIn,WindSpeedMaxMPH,WindSpeedAvgMPH,GustSpeedMaxMPH,PrecipitationSumIn
2013-4-1,61.2,45.2,33.3,44.1,33.5,14.5,97,67,39,29.98,29.71,20,4,20,0.00
2013-4-2,44.4,36.1,29.7,19.6,15.5,12.4,57,43,29,30.16,29.98,15,4,16,0.00
2013-4-3,46.9,35.2,22.8,19.9,15.6,10.9,76,46,26,30.36,30.16,15,4,15,0.00
2013-4-4,48.7,36.4,23.5,25.9,18.2,14.4,73,49,28,30.45,30.11,9,2,9,0.00
2013-4-5,62.1,48.1,36.0,34.3,26.8,16.3,91,50,21,30.11,29.81,14,3,15,0.00
2013-4-6,52.0,42.6,33.3,26.6,18.5,13.8,59,39,25,30.33,30.04,11,2,11,0.00
2013-4-7,60.3,49.0,37.0,43.3,34.4,25.0,77,58,43,30.31,30.01,18,4,18,0.00
2013-4-8,75.4,61.3,43.9,49.6,44.8,39.4,87,58,35,30.09,29.97,9,2,9,0.00
2013-4-9,82.4,68.8,50.5,54.0,50.3,45.5,85,55,30,30.05,29.91,16,3,16,0.00
2013-4-10,86.7,71.9,53.8,58.8,53.9,48.7,92,56,34,29.94,29.76,19,3,19,0.16
2013-4-11,77.0,61.6,49.8,62.1,55.1,44.8,98,81,57,29.91,29.81,21,3,21,0.00
2013-4-12,49.8,45.4,43.3,45.5,43.8,42.1,96,94,85,29.90,29.67,18,6,21,0.48
2013-4-13,59.7,49.0,37.8,43.0,38.2,33.8,97,70,41,29.99,29.79,12,2,13,0.00
2013-4-14,60.1,49.1,35.2,38.8,34.1,28.2,91,60,33,30.17,29.99,13,2,13,0.00
2013-4-15,60.4,51.2,45.3,45.0,39.7,31.3,79,65,53,30.34,30.16,11,2,11,0.00
2013-4-16,69.4,57.8,46.0,56.5,50.2,42.4,88,76,62,30.35,30.13,12,3,14,0.00
2013-4-17,69.3,59.6,52.3,56.1,50.0,43.3,94,73,42,30.28,30.11,9,2,11,0.00
2013-4-18,61.7,56.2,52.3,58.8,50.1,38.8,94,81,56,30.28,30.05,12,2,12,0.02
2013-4-19,73.4,63.3,51.6,64.2,59.3,49.1,96,88,71,30.06,29.61,15,4,15,0.98
2013-4-20,56.5,48.2,41.2,50.4,34.5,25.7,95,62,37,30.35,29.75,15,4,15,0.06
2013-4-21,53.2,43.4,34.0,34.3,25.2,19.8,84,50,33,30.63,30.35,11,2,12,0.00
2013-4-22,54.3,43.4,30.7,36.3,32.1,28.9,94,67,43,30.63,30.46,14,3,15,0.00
2013-4-23,55.2,47.2,41.2,42.8,38.8,33.4,87,73,60,30.46,30.15,10,3,10,0.00
2013-4-24,70.3,53.4,36.1,56.7,47.5,34.5,97,82,58,30.15,29.81,15,2,15,0.00
2013-4-25,60.3,50.0,40.6,51.4,33.6,28.2,78,55,32,30.31,29.94,19,4,19,0.01
2013-4-26,62.6,50.3,38.3,38.7,32.8,24.4,84,55,25,30.46,30.31,9,2,9,0.00
2013-4-27,67.8,52.0,35.2,38.8,33.3,28.9,86,54,26,30.46,30.31,7,1,7,0.00
2013-4-28,67.5,54.5,40.8,42.6,37.7,31.1,92,56,32,30.32,30.19,11,2,11,0.00
2013-4-29,55.0,52.9,49.3,54.0,50.4,39.0,97,92,60,30.21,30.11,9,1,12,0.53
2013-4-30,67.8,57.7,47.7,52.3,46.8,34.3,97,70,41,30.33,30.16,12,2,12,0.01